createdAt,value
2019-01-03T00:00:33.889Z,4.60
2019-01-03T00:01:52.009Z,4.60
2019-01-03T00:03:03.910Z,4.60
2019-01-03T00:04:06.909Z,4.70
2019-01-03T00:05:28.024Z,4.70
2019-01-03T00:06:47.469Z,4.70
2019-01-03T00:07:50.380Z,4.80
2019-01-03T00:08:53.296Z,4.70
2019-01-03T00:09:56.249Z,4.70
2019-01-03T00:11:05.171Z,4.70
2019-01-03T00:12:24.796Z,4.70
2019-01-03T00:13:36.773Z,4.70
2019-01-03T00:14:39.695Z,4.60
2019-01-03T00:15:51.325Z,4.80
2019-01-03T00:16:57.106Z,4.70
2019-01-03T00:18:11.765Z,4.70
2019-01-03T00:19:32.833Z,4.70
2019-01-03T00:20:38.277Z,4.70
2019-01-03T00:21:46.764Z,4.70
2019-01-03T00:23:01.637Z,4.70
2019-01-03T00:24:04.557Z,4.70
2019-01-03T00:25:07.478Z,4.70
2019-01-03T00:26:10.395Z,4.50
2019-01-03T00:27:19.044Z,4.50
2019-01-03T00:28:27.816Z,4.40
2019-01-03T00:29:33.492Z,4.40
2019-01-03T00:30:53.117Z,4.40
2019-01-03T00:31:56.026Z,4.30
2019-01-03T00:33:14.253Z,4.30
2019-01-03T00:34:19.873Z,4.20
2019-01-03T00:35:39.360Z,4.20
2019-01-03T00:36:42.273Z,4.20
2019-01-03T00:37:47.996Z,4.10
2019-01-03T00:38:53.481Z,4.10
2019-01-03T00:40:13.014Z,4.10
2019-01-03T00:41:32.495Z,4.00
2019-01-03T00:42:38.169Z,3.90
2019-01-03T00:43:58.168Z,3.90
2019-01-03T00:45:09.836Z,4.00
2019-01-03T00:46:30.860Z,4.00
2019-01-03T00:47:50.502Z,4.00
2019-01-03T00:48:53.510Z,4.00
2019-01-03T00:50:13.620Z,3.90
2019-01-03T00:51:19.464Z,3.90
2019-01-03T00:52:27.932Z,3.90
2019-01-03T00:53:48.988Z,3.90
2019-01-03T00:55:07.221Z,3.90
2019-01-03T00:56:22.479Z,3.80
2019-01-03T00:57:25.444Z,3.80
2019-01-03T00:58:30.940Z,3.80
2019-01-03T00:59:39.937Z,3.80
2019-01-03T01:00:48.712Z,3.70
2019-01-03T01:01:51.628Z,3.70
2019-01-03T01:03:03.493Z,3.70
2019-01-03T01:04:18.221Z,3.70
2019-01-03T01:05:33.044Z,3.70
2019-01-03T01:06:47.826Z,3.70
2019-01-03T01:07:59.894Z,3.70
2019-01-03T01:09:17.972Z,3.70
2019-01-03T01:10:32.672Z,3.80
2019-01-03T01:11:52.369Z,3.70
2019-01-03T01:13:11.913Z,3.80
2019-01-03T01:14:31.410Z,3.80
2019-01-03T01:15:34.332Z,3.80
2019-01-03T01:16:39.784Z,3.80
2019-01-03T01:17:42.697Z,3.70
2019-01-03T01:19:03.741Z,3.70
2019-01-03T01:20:07.475Z,3.70
2019-01-03T01:21:16.194Z,3.70
2019-01-03T01:22:35.688Z,3.70
2019-01-03T01:23:44.404Z,3.70
2019-01-03T01:24:49.844Z,3.80
2019-01-03T01:25:55.768Z,3.80
2019-01-03T01:27:01.452Z,3.80
2019-01-03T01:28:07.187Z,3.90
2019-01-03T01:29:28.313Z,3.90
2019-01-03T01:30:46.152Z,3.90
2019-01-03T01:31:49.109Z,3.90
2019-01-03T01:32:52.066Z,4.00
2019-01-03T01:34:00.887Z,4.00
2019-01-03T01:35:20.291Z,4.00
2019-01-03T01:36:39.745Z,4.00
2019-01-03T01:37:59.313Z,4.10
2019-01-03T01:39:20.313Z,4.00
2019-01-03T01:40:39.889Z,4.00
2019-01-03T01:41:42.813Z,4.00
2019-01-03T01:43:01.273Z,4.00
2019-01-03T01:44:20.732Z,3.90
2019-01-03T01:45:35.756Z,3.90
2019-01-03T01:46:38.778Z,3.90
2019-01-03T01:47:41.684Z,3.90
2019-01-03T01:48:44.601Z,3.90
2019-01-03T01:49:56.333Z,3.90
2019-01-03T01:51:01.829Z,3.90
2019-01-03T01:52:13.773Z,3.90
2019-01-03T01:53:19.188Z,3.90
2019-01-03T01:54:22.109Z,3.90
2019-01-03T01:55:25.032Z,3.90
2019-01-03T01:56:45.874Z,3.90
2019-01-03T01:57:51.560Z,3.80
2019-01-03T01:59:10.885Z,3.90
2019-01-03T02:00:22.906Z,3.90
2019-01-03T02:01:42.221Z,3.90
2019-01-03T02:02:45.139Z,3.90
2019-01-03T02:03:50.571Z,3.90
2019-01-03T02:05:11.688Z,4.00
2019-01-03T02:06:20.398Z,3.90
2019-01-03T02:07:23.317Z,3.90
2019-01-03T02:08:26.257Z,4.00
2019-01-03T02:09:45.797Z,4.00
2019-01-03T02:10:48.712Z,4.00
2019-01-03T02:11:57.445Z,3.90
2019-01-03T02:13:09.180Z,3.90
2019-01-03T02:14:21.981Z,3.90
2019-01-03T02:15:30.993Z,3.90
2019-01-03T02:16:33.906Z,3.90
2019-01-03T02:17:45.621Z,3.80
2019-01-03T02:18:57.118Z,3.80
2019-01-03T02:20:16.800Z,3.70
2019-01-03T02:21:36.559Z,3.60
2019-01-03T02:22:39.474Z,3.60
2019-01-03T02:23:42.389Z,3.60
2019-01-03T02:25:03.315Z,3.70
2019-01-03T02:26:14.808Z,3.70
2019-01-03T02:27:17.738Z,3.70
2019-01-03T02:28:38.681Z,3.70
2019-01-03T02:29:58.424Z,3.70
2019-01-03T02:31:04.141Z,3.70
2019-01-03T02:32:07.057Z,3.70
2019-01-03T02:33:09.986Z,3.70
2019-01-03T02:34:31.010Z,3.70
2019-01-03T02:35:50.640Z,3.70
2019-01-03T02:36:53.548Z,3.70
2019-01-03T02:38:12.800Z,3.70
2019-01-03T02:39:30.845Z,3.70
2019-01-03T02:40:39.497Z,3.70
2019-01-03T02:41:42.414Z,3.80
2019-01-03T02:42:47.860Z,3.70
2019-01-03T02:43:50.808Z,3.70
2019-01-03T02:45:02.385Z,3.80
2019-01-03T02:46:05.297Z,3.80
2019-01-03T02:47:11.161Z,3.80
2019-01-03T02:48:32.326Z,3.70
2019-01-03T02:49:43.784Z,3.80
2019-01-03T02:50:58.527Z,3.80
2019-01-03T02:52:01.428Z,3.80
2019-01-03T02:53:10.377Z,3.80
2019-01-03T02:54:16.064Z,3.80
2019-01-03T02:55:34.113Z,3.70
2019-01-03T02:56:53.507Z,3.70
2019-01-03T02:57:59.177Z,3.70
2019-01-03T02:59:18.325Z,3.70
2019-01-03T03:00:24.017Z,3.70
2019-01-03T03:01:35.660Z,3.70
2019-01-03T03:02:53.650Z,3.60
2019-01-03T03:04:13.226Z,3.60
2019-01-03T03:05:18.875Z,3.60
2019-01-03T03:06:28.051Z,3.60
2019-01-03T03:07:30.956Z,3.60
2019-01-03T03:08:50.268Z,3.60
2019-01-03T03:09:55.961Z,3.60
2019-01-03T03:11:15.452Z,3.60
2019-01-03T03:12:18.367Z,3.60
2019-01-03T03:13:26.889Z,3.50
2019-01-03T03:14:32.398Z,3.50
2019-01-03T03:15:50.481Z,3.40
2019-01-03T03:17:08.816Z,3.40
2019-01-03T03:18:29.569Z,3.30
2019-01-03T03:19:50.591Z,3.30
2019-01-03T03:21:10.073Z,3.30
2019-01-03T03:22:13.009Z,3.30
2019-01-03T03:23:21.912Z,3.30
2019-01-03T03:24:36.513Z,3.30
2019-01-03T03:25:39.430Z,3.30
2019-01-03T03:26:51.729Z,3.40
2019-01-03T03:28:09.466Z,3.40
2019-01-03T03:29:27.628Z,3.40
2019-01-03T03:30:42.647Z,3.50
2019-01-03T03:31:48.084Z,3.50
2019-01-03T03:32:53.763Z,3.50
2019-01-03T03:34:08.748Z,3.50
2019-01-03T03:35:14.499Z,3.50
2019-01-03T03:36:33.969Z,3.50
2019-01-03T03:37:48.956Z,3.60
2019-01-03T03:38:54.401Z,3.50
2019-01-03T03:40:15.337Z,3.40
2019-01-03T03:41:18.285Z,3.40
2019-01-03T03:42:37.702Z,3.40
2019-01-03T03:43:55.675Z,3.50
2019-01-03T03:45:13.741Z,3.50
2019-01-03T03:46:19.677Z,3.50
2019-01-03T03:47:34.689Z,3.50
2019-01-03T03:48:37.597Z,3.50
2019-01-03T03:49:40.521Z,3.50
2019-01-03T03:50:58.264Z,3.40
2019-01-03T03:52:01.173Z,3.40
2019-01-03T03:53:06.646Z,3.40
2019-01-03T03:54:09.568Z,3.40
2019-01-03T03:55:15.009Z,3.40
2019-01-03T03:56:34.307Z,3.40
2019-01-03T03:57:43.220Z,3.40
2019-01-03T03:58:48.937Z,3.50
2019-01-03T03:59:55.202Z,3.50
2019-01-03T04:01:14.517Z,3.50
2019-01-03T04:02:23.207Z,3.50
2019-01-03T04:03:41.129Z,3.50
2019-01-03T04:05:00.564Z,3.50
2019-01-03T04:06:20.178Z,3.50
2019-01-03T04:07:28.936Z,3.50
2019-01-03T04:08:48.519Z,3.50
2019-01-03T04:09:54.254Z,3.50
2019-01-03T04:11:12.204Z,3.50
2019-01-03T04:12:24.173Z,3.50
2019-01-03T04:13:27.080Z,3.50
2019-01-03T04:14:45.038Z,3.50
2019-01-03T04:15:50.465Z,3.50
2019-01-03T04:17:11.585Z,3.50
2019-01-03T04:18:17.397Z,3.50
2019-01-03T04:19:25.982Z,3.50
2019-01-03T04:20:28.891Z,3.50
2019-01-03T04:21:48.146Z,3.50
2019-01-03T04:22:57.221Z,3.40
2019-01-03T04:24:00.165Z,3.40
2019-01-03T04:25:14.909Z,3.40
2019-01-03T04:26:20.349Z,3.40
2019-01-03T04:27:40.150Z,3.60
2019-01-03T04:28:59.818Z,3.40
2019-01-03T04:30:17.869Z,3.40
2019-01-03T04:31:32.656Z,3.50
2019-01-03T04:32:41.277Z,3.40
2019-01-03T04:33:46.691Z,3.40
2019-01-03T04:34:52.149Z,3.40
2019-01-03T04:36:11.764Z,3.40
2019-01-03T04:37:31.389Z,3.40
2019-01-03T04:38:40.329Z,3.40
2019-01-03T04:39:59.901Z,3.40
2019-01-03T04:41:19.486Z,3.40
2019-01-03T04:42:25.193Z,3.50
2019-01-03T04:43:44.513Z,3.50
2019-01-03T04:44:47.444Z,3.40
2019-01-03T04:45:59.237Z,3.40
2019-01-03T04:47:14.303Z,3.40
2019-01-03T04:48:17.212Z,3.20
2019-01-03T04:49:20.132Z,3.10
2019-01-03T04:50:38.097Z,3.10
2019-01-03T04:51:41.013Z,3.00
2019-01-03T04:53:00.637Z,3.00
2019-01-03T04:54:19.985Z,3.00
2019-01-03T04:55:39.536Z,3.00
2019-01-03T04:56:42.446Z,3.00
2019-01-03T04:58:03.266Z,3.00
2019-01-03T04:59:22.816Z,3.00
2019-01-03T05:00:40.993Z,3.10
2019-01-03T05:02:05.203Z,3.10
2019-01-03T05:03:17.025Z,3.20
2019-01-03T05:04:41.250Z,3.20
2019-01-03T05:05:53.101Z,3.10
2019-01-03T05:07:12.463Z,3.20
2019-01-03T05:08:18.514Z,3.20
2019-01-03T05:09:33.112Z,3.20
2019-01-03T05:10:42.141Z,3.20
2019-01-03T05:11:53.655Z,3.20
2019-01-03T05:12:56.557Z,3.20
2019-01-03T05:13:59.501Z,3.20
2019-01-03T05:15:18.991Z,3.20
2019-01-03T05:16:21.925Z,3.20
2019-01-03T05:17:27.421Z,3.30
2019-01-03T05:18:31.973Z,3.20
2019-01-03T05:19:53.265Z,3.20
2019-01-03T05:21:12.873Z,3.20
2019-01-03T05:22:21.753Z,3.20
2019-01-03T05:23:41.002Z,3.30
2019-01-03T05:24:52.745Z,3.20
2019-01-03T05:25:55.676Z,3.30
2019-01-03T05:27:15.256Z,3.20
2019-01-03T05:28:18.216Z,3.20
2019-01-03T05:29:39.532Z,3.30
2019-01-03T05:30:54.341Z,3.30
2019-01-03T05:31:57.249Z,3.30
2019-01-03T05:33:15.038Z,3.30
2019-01-03T05:34:18.020Z,3.30
2019-01-03T05:35:23.617Z,3.30
2019-01-03T05:36:26.557Z,3.30
2019-01-03T05:37:38.293Z,3.30
2019-01-03T05:38:47.133Z,3.20
2019-01-03T05:39:52.873Z,3.30
2019-01-03T05:41:05.230Z,3.30
2019-01-03T05:42:08.240Z,3.30
2019-01-03T05:43:29.329Z,3.30
2019-01-03T05:44:48.708Z,3.20
2019-01-03T05:45:54.376Z,3.20
2019-01-03T05:46:59.813Z,3.10
2019-01-03T05:48:17.635Z,3.20
2019-01-03T05:49:38.740Z,3.10
2019-01-03T05:50:44.553Z,3.10
2019-01-03T05:51:59.181Z,3.10
2019-01-03T05:53:22.661Z,3.00
2019-01-03T05:54:42.320Z,3.00
2019-01-03T05:55:48.006Z,3.00
2019-01-03T05:56:56.730Z,3.00
2019-01-03T05:58:16.405Z,2.90
2019-01-03T05:59:31.282Z,2.90
2019-01-03T06:00:36.789Z,2.90
2019-01-03T06:01:54.728Z,2.90
2019-01-03T06:02:57.637Z,2.90
2019-01-03T06:04:00.564Z,2.90
2019-01-03T06:05:19.964Z,2.90
2019-01-03T06:06:23.364Z,2.90
2019-01-03T06:07:38.024Z,3.00
2019-01-03T06:08:53.051Z,3.00
2019-01-03T06:09:55.956Z,3.00
2019-01-03T06:10:58.865Z,3.00
2019-01-03T06:12:16.850Z,3.00
2019-01-03T06:13:22.936Z,3.00
2019-01-03T06:14:44.933Z,3.00
2019-01-03T06:15:50.627Z,3.00
2019-01-03T06:16:59.329Z,3.00
2019-01-03T06:18:18.792Z,3.00
2019-01-03T06:19:38.673Z,3.10
2019-01-03T06:20:44.380Z,3.00
2019-01-03T06:22:03.994Z,3.10
2019-01-03T06:23:09.715Z,3.10
2019-01-03T06:24:18.168Z,3.00
2019-01-03T06:25:21.083Z,3.00
2019-01-03T06:26:39.106Z,3.00
2019-01-03T06:27:44.661Z,3.00
2019-01-03T06:28:47.575Z,3.00
2019-01-03T06:30:08.354Z,3.00
2019-01-03T06:31:14.021Z,3.00
2019-01-03T06:32:33.284Z,2.90
2019-01-03T06:33:36.204Z,2.90
2019-01-03T06:34:41.673Z,3.00
2019-01-03T06:35:44.689Z,2.90
2019-01-03T06:36:47.629Z,2.90
2019-01-03T06:38:05.401Z,2.90
2019-01-03T06:39:08.386Z,2.90
2019-01-03T06:40:29.736Z,2.80
2019-01-03T06:41:49.008Z,2.90
2019-01-03T06:43:03.941Z,2.90
2019-01-03T06:44:06.873Z,3.00
2019-01-03T06:45:26.192Z,2.90
2019-01-03T06:46:31.888Z,2.90
2019-01-03T06:47:34.810Z,2.90
2019-01-03T06:48:55.540Z,2.90
2019-01-03T06:50:13.604Z,2.90
2019-01-03T06:51:19.016Z,2.90
2019-01-03T06:52:31.131Z,2.90
2019-01-03T06:53:48.837Z,2.90
2019-01-03T06:55:08.364Z,2.90
2019-01-03T06:56:26.377Z,2.90
2019-01-03T06:57:37.911Z,2.90
2019-01-03T06:58:46.872Z,2.90
2019-01-03T06:59:49.849Z,2.90
2019-01-03T07:00:52.757Z,2.90
2019-01-03T07:02:01.468Z,2.90
2019-01-03T07:03:16.655Z,2.90
2019-01-03T07:04:28.281Z,2.90
2019-01-03T07:05:31.193Z,2.90
2019-01-03T07:06:42.941Z,2.90
2019-01-03T07:08:00.976Z,2.90
2019-01-03T07:09:24.069Z,2.90
2019-01-03T07:10:35.861Z,2.90
2019-01-03T07:11:55.113Z,2.80
2019-01-03T07:13:14.808Z,2.80
2019-01-03T07:14:26.841Z,2.80
2019-01-03T07:15:29.767Z,2.70
2019-01-03T07:16:44.724Z,2.70
2019-01-03T07:17:53.444Z,2.70
2019-01-03T07:19:11.504Z,2.70
2019-01-03T07:20:30.909Z,2.70
2019-01-03T07:21:39.829Z,2.70
2019-01-03T07:22:57.821Z,2.70
2019-01-03T07:24:00.741Z,2.70
2019-01-03T07:25:21.604Z,2.70
2019-01-03T07:26:30.056Z,2.70
2019-01-03T07:27:45.110Z,2.70
2019-01-03T07:28:50.548Z,2.80
2019-01-03T07:29:53.462Z,2.70
2019-01-03T07:30:56.372Z,2.70
2019-01-03T07:32:05.270Z,2.70
2019-01-03T07:33:24.549Z,2.70
2019-01-03T07:34:27.460Z,2.60
2019-01-03T07:35:37.075Z,2.50
2019-01-03T07:36:49.292Z,2.50
2019-01-03T07:37:52.245Z,2.50
2019-01-03T07:38:57.664Z,2.50
2019-01-03T07:40:09.337Z,2.50
2019-01-03T07:41:18.101Z,2.50
2019-01-03T07:42:30.082Z,2.60
2019-01-03T07:43:38.604Z,2.60
2019-01-03T07:44:53.596Z,2.60
2019-01-03T07:45:59.037Z,2.60
2019-01-03T07:47:18.340Z,2.60
2019-01-03T07:48:21.257Z,2.70
2019-01-03T07:49:29.884Z,2.70
2019-01-03T07:50:38.448Z,2.70
2019-01-03T07:51:43.917Z,2.70
2019-01-03T07:53:02.338Z,2.70
2019-01-03T07:54:08.016Z,2.70
2019-01-03T07:55:27.741Z,2.70
2019-01-03T07:56:47.422Z,2.70
2019-01-03T07:57:56.140Z,2.70
2019-01-03T07:59:15.674Z,2.80
2019-01-03T08:00:18.584Z,2.80
2019-01-03T08:01:30.434Z,2.80
2019-01-03T08:02:36.106Z,2.80
2019-01-03T08:03:57.085Z,2.80
2019-01-03T08:05:02.519Z,2.80
2019-01-03T08:06:08.304Z,2.80
2019-01-03T08:07:29.529Z,2.70
2019-01-03T08:08:47.389Z,2.70
2019-01-03T08:10:06.968Z,2.70
2019-01-03T08:11:12.698Z,2.60
2019-01-03T08:12:27.756Z,2.70
2019-01-03T08:13:39.412Z,2.60
2019-01-03T08:14:48.127Z,2.70
2019-01-03T08:15:53.832Z,2.70
2019-01-03T08:17:15.012Z,2.60
2019-01-03T08:18:20.680Z,2.60
2019-01-03T08:19:41.981Z,2.60
2019-01-03T08:21:00.230Z,2.60
2019-01-03T08:22:15.186Z,2.60
2019-01-03T08:23:24.252Z,2.70
2019-01-03T08:24:35.992Z,2.70
2019-01-03T08:25:45.077Z,2.70
2019-01-03T08:26:50.520Z,2.70
2019-01-03T08:27:59.622Z,2.70
2019-01-03T08:29:08.398Z,2.80
2019-01-03T08:30:11.312Z,2.80
2019-01-03T08:31:30.633Z,2.80
2019-01-03T08:32:50.176Z,2.80
2019-01-03T08:33:55.849Z,2.90
2019-01-03T08:35:01.579Z,3.00
2019-01-03T08:36:07.437Z,3.10
2019-01-03T08:37:10.357Z,3.10
2019-01-03T08:38:19.083Z,3.10
2019-01-03T08:39:22.001Z,3.10
2019-01-03T08:40:28.005Z,3.10
2019-01-03T08:41:39.841Z,3.10
2019-01-03T08:42:59.408Z,3.10
2019-01-03T08:44:17.673Z,3.10
2019-01-03T08:45:26.361Z,3.00
2019-01-03T08:46:35.073Z,3.00
2019-01-03T08:47:54.661Z,3.00
2019-01-03T08:49:14.175Z,2.90
2019-01-03T08:50:33.699Z,2.90
2019-01-03T08:51:53.270Z,2.90
2019-01-03T08:53:05.232Z,2.90
2019-01-03T08:54:08.152Z,3.00
2019-01-03T08:55:11.082Z,2.90
2019-01-03T08:56:17.135Z,2.90
2019-01-03T08:57:35.157Z,2.90
2019-01-03T08:58:43.997Z,3.00
2019-01-03T08:59:46.988Z,3.00
2019-01-03T09:01:06.409Z,3.00
2019-01-03T09:02:26.072Z,3.00
2019-01-03T09:03:32.057Z,3.00
2019-01-03T09:04:51.328Z,3.00
2019-01-03T09:06:06.369Z,3.00
2019-01-03T09:07:09.280Z,2.90
2019-01-03T09:08:24.022Z,3.00
2019-01-03T09:09:43.372Z,3.00
2019-01-03T09:10:46.296Z,3.00
2019-01-03T09:12:05.674Z,2.90
2019-01-03T09:13:08.604Z,2.90
2019-01-03T09:14:17.397Z,2.90
2019-01-03T09:15:20.333Z,2.90
2019-01-03T09:16:32.061Z,3.00
2019-01-03T09:17:47.059Z,3.00
2019-01-03T09:19:06.476Z,3.10
2019-01-03T09:20:12.172Z,3.10
2019-01-03T09:21:20.643Z,3.20
2019-01-03T09:22:26.205Z,3.20
2019-01-03T09:23:45.577Z,3.30
2019-01-03T09:24:48.615Z,3.30
2019-01-03T09:26:06.654Z,3.30
2019-01-03T09:27:21.429Z,3.30
2019-01-03T09:28:40.948Z,3.30
2019-01-03T09:30:00.580Z,3.40
2019-01-03T09:31:20.143Z,3.40
2019-01-03T09:32:28.973Z,3.30
2019-01-03T09:33:48.273Z,3.30
2019-01-03T09:35:00.240Z,3.30
2019-01-03T09:36:03.163Z,3.30
2019-01-03T09:37:06.080Z,3.30
2019-01-03T09:38:25.349Z,3.30
2019-01-03T09:39:37.152Z,3.30
2019-01-03T09:40:56.745Z,3.30
2019-01-03T09:42:08.509Z,3.30
2019-01-03T09:43:11.480Z,3.30
2019-01-03T09:44:23.519Z,3.30
2019-01-03T09:45:24.543Z,3.20
2019-01-03T09:46:25.548Z,3.20
2019-01-03T09:47:26.560Z,3.20
2019-01-03T09:48:27.659Z,3.10
2019-01-03T09:49:28.732Z,3.20
2019-01-03T09:50:29.742Z,3.20
2019-01-03T09:51:30.792Z,3.20
2019-01-03T09:52:31.793Z,3.20
2019-01-03T09:53:32.804Z,3.20
2019-01-03T09:54:33.815Z,3.20
2019-01-03T09:55:34.820Z,3.20
2019-01-03T09:56:35.840Z,3.20
2019-01-03T09:57:36.845Z,3.20
2019-01-03T09:58:37.861Z,3.10
2019-01-03T09:59:38.864Z,3.10
2019-01-03T10:00:39.906Z,3.20
2019-01-03T10:01:40.926Z,3.20
2019-01-03T10:02:42.001Z,3.30
2019-01-03T10:03:43.033Z,3.40
2019-01-03T10:04:44.044Z,3.50
2019-01-03T10:05:45.044Z,3.50
2019-01-03T10:06:46.109Z,3.60
2019-01-03T10:07:47.161Z,3.70
2019-01-03T10:08:48.251Z,3.70
2019-01-03T10:09:49.257Z,3.80
2019-01-03T10:10:50.270Z,3.80
2019-01-03T10:11:51.292Z,3.90
2019-01-03T10:12:52.292Z,3.90
2019-01-03T10:13:53.300Z,4.00
2019-01-03T10:14:54.313Z,4.00
2019-01-03T10:15:55.329Z,4.10
2019-01-03T10:16:56.357Z,4.10
2019-01-03T10:17:57.356Z,4.20
2019-01-03T10:18:58.388Z,4.20
2019-01-03T10:19:59.392Z,4.20
2019-01-03T10:21:00.406Z,4.20
2019-01-03T10:22:01.433Z,4.20
2019-01-03T10:23:02.439Z,4.20
2019-01-03T10:24:03.461Z,4.20
2019-01-03T10:25:04.580Z,4.20
2019-01-03T10:26:05.585Z,4.10
2019-01-03T10:27:06.600Z,4.20
2019-01-03T10:28:07.608Z,4.10
2019-01-03T10:29:08.620Z,4.10
2019-01-03T10:30:09.900Z,4.00
2019-01-03T10:31:11.410Z,4.00
2019-01-03T10:32:12.828Z,4.00
2019-01-03T10:33:13.828Z,4.00
2019-01-03T10:34:14.864Z,4.00
2019-01-03T10:35:15.878Z,4.00
2019-01-03T10:36:16.886Z,4.10
2019-01-03T10:37:17.909Z,4.10
2019-01-03T10:38:21.101Z,4.10
2019-01-03T10:39:21.851Z,4.20
2019-01-03T10:40:22.866Z,4.20
2019-01-03T10:41:23.901Z,4.20
2019-01-03T10:42:25.105Z,4.20
2019-01-03T10:43:26.144Z,4.20
2019-01-03T10:44:27.157Z,4.20
2019-01-03T10:45:29.013Z,4.20
2019-01-03T10:46:30.020Z,4.20
2019-01-03T10:47:31.036Z,4.20
2019-01-03T10:48:32.045Z,4.10
2019-01-03T10:49:33.052Z,4.10
2019-01-03T10:50:34.069Z,4.10
2019-01-03T10:51:35.098Z,4.10
2019-01-03T10:52:36.125Z,4.10
2019-01-03T10:53:37.134Z,4.00
2019-01-03T10:54:38.140Z,4.00
2019-01-03T10:55:39.254Z,3.90
2019-01-03T10:56:40.260Z,3.90
2019-01-03T10:57:41.304Z,3.90
2019-01-03T10:58:42.317Z,3.90
2019-01-03T11:00:54.902Z,4.00
2019-01-03T11:01:55.932Z,4.10
2019-01-03T11:02:56.950Z,4.20
2019-01-03T11:03:57.977Z,4.20
2019-01-03T11:04:59.010Z,4.20
2019-01-03T11:06:00.020Z,4.30
2019-01-03T11:07:01.048Z,4.30
2019-01-03T11:08:02.084Z,4.40
2019-01-03T11:09:04.900Z,4.40
2019-01-03T11:10:05.908Z,4.50
2019-01-03T11:11:06.950Z,4.60
2019-01-03T11:12:07.947Z,4.60
2019-01-03T11:13:08.967Z,4.70
2019-01-03T11:14:09.977Z,4.60
2019-01-03T11:15:10.982Z,4.70
2019-01-03T11:16:12.005Z,4.70
2019-01-03T11:17:13.021Z,4.80
2019-01-03T11:18:14.029Z,4.80
2019-01-03T11:19:15.352Z,4.80
2019-01-03T11:20:16.365Z,4.90
2019-01-03T11:21:17.376Z,5.00
2019-01-03T11:22:18.409Z,5.00
2019-01-03T11:23:19.413Z,5.00
2019-01-03T11:24:20.432Z,5.10
2019-01-03T11:25:21.437Z,5.10
2019-01-03T11:26:22.445Z,5.20
2019-01-03T11:27:23.468Z,5.20
2019-01-03T11:28:24.474Z,5.20
2019-01-03T11:29:25.491Z,5.40
2019-01-03T11:30:26.737Z,5.30
2019-01-03T11:31:27.800Z,5.30
2019-01-03T11:32:28.898Z,5.30
2019-01-03T11:33:29.918Z,5.30
2019-01-03T11:34:30.927Z,5.30
2019-01-03T11:35:31.953Z,5.30
2019-01-03T11:36:32.977Z,5.30
2019-01-03T11:37:33.997Z,5.30
2019-01-03T11:38:35.012Z,5.30
2019-01-03T11:39:36.026Z,5.40
2019-01-03T11:40:37.036Z,5.40
2019-01-03T11:41:38.048Z,5.40
2019-01-03T11:42:39.100Z,5.40
2019-01-03T11:43:40.112Z,5.40
2019-01-03T11:44:41.117Z,5.50
2019-01-03T11:45:42.173Z,5.40
2019-01-03T11:46:43.190Z,5.40
2019-01-03T11:47:44.245Z,5.50
2019-01-03T11:48:45.274Z,5.50
2019-01-03T11:49:46.277Z,5.50
2019-01-03T11:50:47.358Z,5.60
2019-01-03T11:51:48.413Z,5.50
2019-01-03T11:52:49.440Z,5.50
2019-01-03T11:53:50.550Z,5.50
2019-01-03T11:54:51.556Z,5.60
2019-01-03T11:55:52.564Z,5.70
2019-01-03T11:56:53.581Z,5.60
2019-01-03T11:57:54.601Z,5.60
2019-01-03T11:58:55.608Z,5.60
2019-01-03T11:59:56.633Z,5.70
2019-01-03T12:00:57.650Z,5.70
2019-01-03T12:01:58.692Z,5.70
2019-01-03T12:02:59.703Z,5.70
2019-01-03T12:04:00.700Z,5.70
2019-01-03T12:05:01.940Z,5.60
2019-01-03T12:06:02.949Z,5.60
2019-01-03T12:07:03.978Z,5.50
2019-01-03T12:08:05.032Z,5.50
2019-01-03T12:09:06.037Z,5.40
2019-01-03T12:10:07.293Z,5.50
2019-01-03T12:11:08.303Z,5.50
2019-01-03T12:12:09.332Z,5.50
2019-01-03T12:13:10.375Z,5.60
2019-01-03T12:14:11.425Z,5.60
2019-01-03T12:15:12.493Z,5.60
2019-01-03T12:16:13.509Z,5.60
2019-01-03T12:17:14.514Z,5.60
2019-01-03T12:18:15.546Z,5.70
2019-01-03T12:19:16.553Z,5.70
2019-01-03T12:20:17.565Z,5.70
2019-01-03T12:21:18.572Z,5.70
2019-01-03T12:22:19.581Z,5.70
2019-01-03T12:23:20.601Z,5.60
2019-01-03T12:24:21.609Z,5.70
2019-01-03T12:25:22.619Z,5.70
2019-01-03T12:26:23.632Z,5.70
2019-01-03T12:27:24.647Z,5.70
2019-01-03T12:28:25.656Z,5.70
2019-01-03T12:29:26.664Z,5.70
2019-01-03T12:30:27.675Z,5.70
2019-01-03T12:31:28.941Z,5.70
2019-01-03T12:32:29.944Z,5.60
2019-01-03T12:33:30.979Z,5.60
2019-01-03T12:34:32.003Z,5.50
2019-01-03T12:35:33.136Z,5.50
2019-01-03T12:36:34.153Z,5.50
2019-01-03T12:37:35.162Z,5.50
2019-01-03T12:38:36.196Z,5.50
2019-01-03T12:39:37.201Z,5.50
2019-01-03T12:40:38.219Z,5.50
2019-01-03T12:41:39.252Z,5.60
2019-01-03T12:42:40.259Z,5.60
2019-01-03T12:43:41.330Z,5.60
2019-01-03T12:44:42.342Z,5.60
2019-01-03T12:45:43.351Z,5.60
2019-01-03T12:46:44.358Z,5.60
2019-01-03T12:47:45.385Z,5.50
2019-01-03T12:48:46.409Z,5.50
2019-01-03T12:49:47.421Z,5.40
2019-01-03T12:50:48.440Z,5.40
2019-01-03T12:51:49.478Z,5.30
2019-01-03T12:52:50.488Z,5.30
2019-01-03T12:53:51.508Z,5.40
2019-01-03T12:54:54.772Z,5.30
2019-01-03T12:55:55.788Z,5.30
2019-01-03T12:56:56.809Z,5.30
2019-01-03T12:57:57.836Z,5.30
2019-01-03T12:58:58.856Z,5.30
2019-01-03T12:59:59.869Z,5.40
2019-01-03T13:01:00.887Z,5.40
2019-01-03T13:02:01.896Z,5.40
2019-01-03T13:03:02.912Z,5.30
2019-01-03T13:04:04.161Z,5.30
2019-01-03T13:05:05.774Z,5.30
2019-01-03T13:06:06.880Z,5.20
2019-01-03T13:07:07.897Z,5.20
2019-01-03T13:08:08.968Z,5.10
2019-01-03T13:09:11.985Z,5.10
2019-01-03T13:10:13.106Z,5.10
2019-01-03T13:11:14.117Z,5.10
2019-01-03T13:12:15.385Z,5.10
2019-01-03T13:13:16.417Z,5.00
2019-01-03T13:14:17.484Z,5.00
2019-01-03T13:15:18.506Z,5.00
2019-01-03T13:16:19.525Z,4.90
2019-01-03T13:17:20.540Z,4.90
2019-01-03T13:18:21.552Z,5.00
2019-01-03T13:19:22.573Z,5.00
2019-01-03T13:20:23.589Z,5.00
2019-01-03T13:21:24.598Z,5.00
2019-01-03T13:22:25.604Z,5.00
2019-01-03T13:23:26.924Z,5.00
2019-01-03T13:24:27.955Z,5.00
2019-01-03T13:25:28.960Z,4.90
2019-01-03T13:26:29.968Z,5.00
2019-01-03T13:27:30.994Z,5.00
2019-01-03T13:28:31.990Z,5.00
2019-01-03T13:29:33.012Z,5.10
2019-01-03T13:30:34.030Z,5.10
2019-01-03T13:31:35.045Z,5.10
2019-01-03T13:32:36.063Z,5.20
2019-01-03T13:33:37.277Z,5.20
2019-01-03T13:34:38.358Z,5.20
2019-01-03T13:35:39.392Z,5.20
2019-01-03T13:36:40.396Z,5.20
2019-01-03T13:37:41.412Z,5.20
2019-01-03T13:38:42.424Z,5.20
2019-01-03T13:39:43.444Z,5.20
2019-01-03T13:40:44.453Z,5.20
2019-01-03T13:41:45.475Z,5.20
2019-01-03T13:42:46.512Z,5.20
2019-01-03T13:43:47.548Z,5.20
2019-01-03T13:44:48.573Z,5.20
2019-01-03T13:45:49.580Z,5.20
2019-01-03T13:46:50.588Z,5.10
2019-01-03T13:47:51.599Z,5.10
2019-01-03T13:48:52.612Z,5.00
2019-01-03T13:49:53.628Z,5.10
2019-01-03T13:50:54.636Z,5.00
2019-01-03T13:51:55.645Z,5.10
2019-01-03T13:52:56.652Z,5.00
2019-01-03T13:53:57.685Z,5.00
2019-01-03T13:54:58.700Z,4.90
2019-01-03T13:55:59.709Z,4.90
2019-01-03T13:57:00.708Z,4.80
2019-01-03T13:58:01.713Z,4.80
2019-01-03T13:59:02.740Z,4.80
2019-01-03T14:00:06.665Z,4.80
2019-01-03T14:01:07.682Z,4.70
2019-01-03T14:02:08.789Z,4.80
2019-01-03T14:03:09.832Z,4.70
2019-01-03T14:04:10.849Z,4.70
2019-01-03T14:05:11.881Z,4.70
2019-01-03T14:06:12.896Z,4.70
2019-01-03T14:07:13.911Z,4.70
2019-01-03T14:08:14.934Z,4.70
2019-01-03T14:09:16.024Z,4.70
2019-01-03T14:10:17.066Z,4.70
2019-01-03T14:11:18.090Z,4.70
2019-01-03T14:12:19.165Z,4.70
2019-01-03T14:13:20.194Z,4.70
2019-01-03T14:14:21.222Z,4.80
2019-01-03T14:15:22.243Z,4.80
2019-01-03T14:16:23.248Z,4.80
2019-01-03T14:17:24.267Z,4.90
2019-01-03T14:18:25.324Z,4.90
2019-01-03T14:19:26.341Z,4.90
2019-01-03T14:20:27.356Z,4.90
2019-01-03T14:21:28.388Z,5.00
2019-01-03T14:22:29.402Z,5.00
2019-01-03T14:23:30.411Z,5.00
2019-01-03T14:24:31.420Z,5.00
2019-01-03T14:25:32.453Z,5.10
2019-01-03T14:26:33.456Z,5.00
2019-01-03T14:27:34.470Z,5.10
2019-01-03T14:28:35.481Z,5.10
2019-01-03T14:29:36.497Z,5.10
2019-01-03T14:30:37.506Z,5.10
2019-01-03T14:31:38.520Z,5.10
2019-01-03T14:32:39.552Z,5.10
2019-01-03T14:33:40.559Z,5.10
2019-01-03T14:34:41.941Z,5.10
2019-01-03T14:35:42.988Z,5.10
2019-01-03T14:36:44.005Z,5.10
2019-01-03T14:37:45.017Z,5.10
2019-01-03T14:38:46.036Z,5.10
2019-01-03T14:39:47.044Z,5.00
2019-01-03T14:40:48.066Z,5.00
2019-01-03T14:41:49.360Z,5.10
2019-01-03T14:42:50.372Z,5.10
2019-01-03T14:43:51.423Z,5.10
2019-01-03T14:44:52.432Z,5.10
2019-01-03T14:45:53.466Z,5.10
2019-01-03T14:46:54.481Z,5.10
2019-01-03T14:47:55.496Z,5.10
2019-01-03T14:48:57.581Z,5.10
2019-01-03T14:49:58.732Z,5.10
2019-01-03T14:50:59.744Z,5.10
2019-01-03T14:52:00.791Z,5.10
2019-01-03T14:53:01.801Z,5.10
2019-01-03T14:54:02.813Z,5.10
2019-01-03T14:55:06.229Z,5.20
2019-01-03T14:56:07.244Z,5.10
2019-01-03T14:57:08.296Z,5.10
2019-01-03T14:58:09.325Z,5.10
2019-01-03T14:59:10.334Z,5.10